Time;durP1;ratioP1;P1;durP2;ratioP2;P2;SDS_P1;SDS_P2;PMS_P1;PMS_P2;Temp;Humidity;BMP_temperature;BMP_pressure;BME280_temperature;BME280_humidity;BME280_pressure;Samples;Min_cycle;Max_cycle;Signal;HPM_P1;HPM_P2
2021/10/04 05:51:56;;;;;;;4.00;0.90;;;;;;;;;;10585253;27;20767;-87
2021/10/04 05:56:57;;;;;;;2.42;0.80;;;;;;;;;;10576594;28;20074;-87
2021/10/04 06:01:59;;;;;;;2.28;1.00;;;;;;;;;;10575839;28;20389;-87
2021/10/04 06:07:06;;;;;;;2.13;1.20;;;;;;;;;;10559694;28;20527;-87
2021/10/04 06:12:09;;;;;;;1.40;0.85;;;;;;;;;;10580405;28;20032;-85
2021/10/04 06:17:10;;;;;;;2.72;1.58;;;;;;;;;;10579685;28;20055;-85
2021/10/04 06:22:11;;;;;;;1.25;0.77;;;;;;;;;;10579789;28;20088;-83
2021/10/04 06:27:12;;;;;;;2.00;0.80;;;;;;;;;;10577852;28;20108;-85
2021/10/04 06:32:13;;;;;;;1.92;1.00;;;;;;;;;;10579583;28;20026;-83
2021/10/04 06:37:17;;;;;;;1.90;0.90;;;;;;;;;;10579075;28;20359;-84
2021/10/04 06:42:18;;;;;;;1.85;0.90;;;;;;;;;;10579864;28;20055;-84
2021/10/04 06:47:19;;;;;;;1.50;0.95;;;;;;;;;;10598500;28;20054;-84
2021/10/04 06:52:20;;;;;;;2.20;1.00;;;;;;;;;;10606608;28;20047;-84
2021/10/04 06:57:21;;;;;;;2.22;1.13;;;;;;;;;;10616218;28;20016;-85
2021/10/04 07:02:25;;;;;;;2.25;0.55;;;;;;;;;;10583960;28;20028;-84
2021/10/04 07:13:11;;;;;;;1.92;0.80;;;;;;;;;;10392293;28;20026;-87
2021/10/04 07:23:55;;;;;;;2.28;1.00;;;;;;;;;;10383441;28;20116;-85
2021/10/04 07:29:34;;;;;;;1.98;1.00;;;;;;;;;;10379976;28;20075;-86
2021/10/04 07:46:24;;;;;;;4.10;0.95;;;;;;;;;;10382292;28;20022;-85
2021/10/04 07:51:46;;;;;;;2.78;1.30;;;;;;;;;;10335357;28;20496;-86
2021/10/04 07:56:53;;;;;;;3.28;1.23;;;;;;;;;;10372806;22;20016;-86
2021/10/04 08:02:29;;;;;;;3.08;1.50;;;;;;;;;;10340424;28;20069;-86
2021/10/04 08:19:13;;;;;;;3.10;1.02;;;;;;;;;;10341203;28;20026;-85
2021/10/04 08:24:16;;;;;;;2.67;1.33;;;;;;;;;;10341032;28;20409;-85
2021/10/04 08:30:06;;;;;;;2.47;1.20;;;;;;;;;;10340346;28;20034;-85
2021/10/04 08:35:13;;;;;;;3.22;1.40;;;;;;;;;;10335255;28;20045;-85
2021/10/04 08:40:23;;;;;;;3.10;1.35;;;;;;;;;;10350692;28;20062;-87
2021/10/04 08:45:43;;;;;;;3.22;1.20;;;;;;;;;;10338953;28;20023;-85
2021/10/04 08:50:49;;;;;;;2.80;1.20;;;;;;;;;;10350536;28;20027;-84
2021/10/04 08:55:50;;;;;;;2.42;1.00;;;;;;;;;;10369885;28;20029;-86
2021/10/04 09:00:51;;;;;;;3.35;1.00;;;;;;;;;;10374541;28;20069;-85
2021/10/04 09:06:01;;;;;;;2.45;1.13;;;;;;;;;;10344085;28;20030;-86
2021/10/04 09:11:13;;;;;;;3.13;1.23;;;;;;;;;;10342285;28;20026;-87
2021/10/04 09:16:28;;;;;;;4.18;1.35;;;;;;;;;;10341719;28;20034;-86
2021/10/04 09:21:29;;;;;;;2.85;1.13;;;;;;;;;;10337752;28;20137;-86
2021/10/04 09:26:29;;;;;;;6.22;1.77;;;;;;;;;;10337508;28;20029;-86
2021/10/04 09:31:32;;;;;;;3.33;1.40;;;;;;;;;;10343842;28;20594;-87
2021/10/04 09:36:38;;;;;;;2.60;1.38;;;;;;;;;;10336396;28;20038;-87
2021/10/04 09:41:59;;;;;;;3.67;1.70;;;;;;;;;;10335143;28;20066;-87
2021/10/04 09:47:09;;;;;;;4.32;1.70;;;;;;;;;;10335294;28;20031;-87
2021/10/04 09:52:14;;;;;;;5.97;1.75;;;;;;;;;;10337591;28;20109;-87
2021/10/04 09:57:22;;;;;;;2.65;1.58;;;;;;;;;;10343116;28;20029;-87
2021/10/04 10:02:23;;;;;;;2.92;1.35;;;;;;;;;;10338524;28;20117;-87
2021/10/04 10:07:24;;;;;;;3.92;1.88;;;;;;;;;;10335431;28;20029;-87
2021/10/04 10:12:35;;;;;;;3.47;1.55;;;;;;;;;;10336155;28;20089;-87
2021/10/04 10:17:36;;;;;;;5.40;2.30;;;;;;;;;;10338483;28;20105;-87
2021/10/04 10:22:45;;;;;;;10.75;2.08;;;;;;;;;;10337766;28;20023;-87
2021/10/04 10:27:46;;;;;;;3.22;1.50;;;;;;;;;;10336704;28;20085;-87
2021/10/04 10:33:19;;;;;;;4.05;1.40;;;;;;;;;;10338528;28;20034;-86
2021/10/04 10:38:41;;;;;;;5.40;1.58;;;;;;;;;;10259391;28;20583;-86
2021/10/04 10:49:50;;;;;;;5.00;1.55;;;;;;;;;;10264759;28;20099;-86
2021/10/04 11:00:33;;;;;;;4.15;1.50;;;;;;;;;;10264641;28;20481;-86
2021/10/04 11:05:43;;;;;;;4.13;1.60;;;;;;;;;;10270014;28;20162;-84
2021/10/04 11:10:53;;;;;;;4.32;1.50;;;;;;;;;;10353630;28;20043;-85
2021/10/04 11:21:53;;;;;;;9.55;1.60;;;;;;;;;;10388573;28;20026;-87
2021/10/04 11:26:55;;;;;;;3.25;1.30;;;;;;;;;;10365552;28;20399;-87
2021/10/04 11:31:56;;;;;;;3.40;1.15;;;;;;;;;;10369637;28;20041;-86
2021/10/04 11:36:57;;;;;;;3.60;1.30;;;;;;;;;;10340802;28;20022;-89
2021/10/04 11:42:03;;;;;;;4.10;1.40;;;;;;;;;;10342409;28;20027;-85
2021/10/04 11:47:07;;;;;;;3.47;1.10;;;;;;;;;;10374078;28;20038;-86
2021/10/04 11:52:15;;;;;;;2.95;1.30;;;;;;;;;;10371347;28;20037;-84
2021/10/04 11:57:39;;;;;;;4.65;1.30;;;;;;;;;;10368401;28;20044;-85
2021/10/04 12:02:41;;;;;;;3.15;1.40;;;;;;;;;;10357656;28;20392;-85
2021/10/04 12:07:55;;;;;;;5.70;1.73;;;;;;;;;;10349282;28;20026;-87
2021/10/04 12:12:55;;;;;;;2.72;1.27;;;;;;;;;;10364338;28;20050;-87
2021/10/04 12:18:01;;;;;;;3.67;1.85;;;;;;;;;;10346298;28;20027;-84
2021/10/04 12:23:12;;;;;;;2.97;1.40;;;;;;;;;;10331559;28;20045;-85
2021/10/04 12:28:18;;;;;;;4.28;1.30;;;;;;;;;;10347560;28;20023;-85
2021/10/04 12:33:19;;;;;;;3.85;1.30;;;;;;;;;;10352060;28;20030;-83
2021/10/04 12:38:21;;;;;;;3.55;1.15;;;;;;;;;;10356971;28;20033;-84
2021/10/04 12:43:22;;;;;;;3.03;1.60;;;;;;;;;;10346691;28;20026;-89
2021/10/04 12:48:23;;;;;;;4.68;1.60;;;;;;;;;;10339287;28;20023;-88
2021/10/04 12:53:26;;;;;;;2.60;1.10;;;;;;;;;;10342029;28;20023;-88
2021/10/04 12:58:28;;;;;;;2.95;1.27;;;;;;;;;;10340079;28;20033;-87
2021/10/04 13:03:30;;;;;;;2.88;1.52;;;;;;;;;;10349404;28;20038;-88
2021/10/04 13:08:37;;;;;;;4.00;1.77;;;;;;;;;;10362815;28;20038;-87
2021/10/04 13:13:41;;;;;;;3.20;1.10;;;;;;;;;;10346420;28;20045;-87
2021/10/04 13:18:42;;;;;;;2.47;1.30;;;;;;;;;;10410035;22;20065;-85
2021/10/04 13:23:43;;;;;;;2.63;1.00;;;;;;;;;;10402059;28;20518;-85
2021/10/04 13:28:44;;;;;;;2.22;1.13;;;;;;;;;;10368314;28;20023;-87
2021/10/04 13:33:50;;;;;;;2.70;1.27;;;;;;;;;;10345352;28;20363;-87
2021/10/04 13:38:58;;;;;;;5.95;1.50;;;;;;;;;;10345889;28;20054;-86
2021/10/04 13:43:59;;;;;;;2.80;1.20;;;;;;;;;;10345489;28;20057;-87
2021/10/04 13:49:00;;;;;;;4.05;1.10;;;;;;;;;;10345430;28;20400;-87
2021/10/04 13:54:01;;;;;;;4.38;1.77;;;;;;;;;;10345552;28;20033;-86
2021/10/04 13:59:02;;;;;;;2.55;1.42;;;;;;;;;;10346633;28;20616;-85
2021/10/04 14:04:04;;;;;;;4.20;2.33;;;;;;;;;;10344527;28;20106;-86
2021/10/04 14:09:05;;;;;;;2.60;1.23;;;;;;;;;;10344968;28;20065;-86
2021/10/04 14:14:06;;;;;;;3.17;1.60;;;;;;;;;;10355917;28;20067;-86
2021/10/04 14:19:07;;;;;;;4.35;1.55;;;;;;;;;;10351398;28;20099;-88
2021/10/04 14:24:08;;;;;;;2.38;1.10;;;;;;;;;;10348500;28;20033;-86
2021/10/04 14:34:56;;;;;;;2.67;1.30;;;;;;;;;;10298311;28;20029;-87
2021/10/04 14:39:57;;;;;;;2.63;1.10;;;;;;;;;;10413983;28;20033;-88
2021/10/04 14:44:58;;;;;;;2.08;0.90;;;;;;;;;;10423955;28;20032;-87
2021/10/04 14:49:59;;;;;;;4.20;1.30;;;;;;;;;;10413594;28;20057;-87
2021/10/04 14:55:02;;;;;;;4.18;1.40;;;;;;;;;;10413253;28;20030;-86
2021/10/04 15:00:04;;;;;;;2.05;0.85;;;;;;;;;;10414370;28;20140;-88
2021/10/04 15:05:05;;;;;;;3.38;1.10;;;;;;;;;;10413937;28;20017;-85
2021/10/04 15:10:16;;;;;;;4.25;1.45;;;;;;;;;;10414707;28;20159;-86
2021/10/04 15:15:20;;;;;;;2.75;0.82;;;;;;;;;;10426527;28;20087;-87
2021/10/04 15:20:27;;;;;;;1.90;1.00;;;;;;;;;;10432199;28;20045;-87
2021/10/04 15:25:30;;;;;;;3.17;1.60;;;;;;;;;;10424213;28;20021;-86
2021/10/04 15:30:31;;;;;;;2.55;1.38;;;;;;;;;;10411354;28;20025;-86
2021/10/04 15:35:41;;;;;;;2.60;1.20;;;;;;;;;;10439365;28;20108;-86
2021/10/04 15:41:09;;;;;;;4.85;2.55;;;;;;;;;;10456460;28;20073;-86
2021/10/04 15:46:28;;;;;;;2.20;1.10;;;;;;;;;;10325443;28;20030;-87
2021/10/04 15:51:30;;;;;;;4.75;1.50;;;;;;;;;;10430124;28;20344;-86
2021/10/04 15:56:31;;;;;;;2.50;1.38;;;;;;;;;;10400354;28;20044;-87
2021/10/04 16:01:32;;;;;;;5.47;2.88;;;;;;;;;;10415053;28;20034;-87
2021/10/04 16:06:34;;;;;;;4.13;1.20;;;;;;;;;;10425970;28;20144;-87
2021/10/04 16:11:39;;;;;;;3.53;1.25;;;;;;;;;;10408161;28;20112;-87
2021/10/04 16:16:41;;;;;;;4.53;1.10;;;;;;;;;;10408540;28;20137;-88
2021/10/04 16:21:50;;;;;;;2.63;1.10;;;;;;;;;;10414012;28;20052;-88
2021/10/04 16:26:51;;;;;;;2.80;1.17;;;;;;;;;;10431079;28;20033;-87
2021/10/04 16:31:52;;;;;;;3.47;1.60;;;;;;;;;;10429512;28;20049;-86
2021/10/04 16:36:53;;;;;;;3.58;1.23;;;;;;;;;;10417203;28;20036;-86
2021/10/04 16:41:54;;;;;;;2.38;1.13;;;;;;;;;;10419204;28;20026;-86
2021/10/04 16:46:56;;;;;;;2.67;1.40;;;;;;;;;;10404539;28;20395;-87
2021/10/04 16:51:57;;;;;;;2.70;1.20;;;;;;;;;;10420034;28;20029;-87
2021/10/04 16:56:58;;;;;;;1.90;1.27;;;;;;;;;;10421915;28;20028;-88
2021/10/04 17:01:59;;;;;;;2.30;1.05;;;;;;;;;;10435066;28;20099;-86
2021/10/04 17:07:00;;;;;;;1.63;1.17;;;;;;;;;;10417777;28;20052;-87
2021/10/04 17:12:01;;;;;;;1.85;1.10;;;;;;;;;;10418849;28;20025;-87
2021/10/04 17:17:02;;;;;;;2.95;0.93;;;;;;;;;;10417354;28;20064;-87
2021/10/04 17:22:04;;;;;;;1.85;1.02;;;;;;;;;;10429586;28;20391;-87
2021/10/04 17:27:05;;;;;;;2.35;1.17;;;;;;;;;;10400543;28;20025;-86
2021/10/04 17:32:06;;;;;;;1.50;1.20;;;;;;;;;;10420409;28;20487;-86
2021/10/04 17:37:07;;;;;;;2.38;1.23;;;;;;;;;;10423864;28;20030;-86
2021/10/04 17:42:09;;;;;;;2.10;1.27;;;;;;;;;;10425757;28;20036;-86
2021/10/04 18:10:13;;;;;;;2.20;1.27;;;;;;;;;;10378869;28;20045;-88
2021/10/04 18:15:14;;;;;;;1.98;1.23;;;;;;;;;;10442461;28;20025;-88
2021/10/04 18:20:18;;;;;;;2.13;1.10;;;;;;;;;;10442322;28;20045;-85
2021/10/04 18:25:21;;;;;;;2.15;1.40;;;;;;;;;;10437488;28;20097;-86
2021/10/04 18:30:23;;;;;;;2.38;1.52;;;;;;;;;;10447464;22;20016;-86
2021/10/04 18:35:26;;;;;;;2.10;1.48;;;;;;;;;;10544280;28;20040;-86
2021/10/04 18:40:27;;;;;;;1.45;1.10;;;;;;;;;;10550529;28;20032;-87
2021/10/04 18:45:28;;;;;;;1.95;1.27;;;;;;;;;;10524017;28;20037;-86
2021/10/04 18:50:38;;;;;;;3.22;1.40;;;;;;;;;;10522360;28;20032;-86
2021/10/04 18:55:40;;;;;;;10.55;3.90;;;;;;;;;;10527085;28;20032;-86
2021/10/04 19:00:42;;;;;;;24.23;7.93;;;;;;;;;;10528738;28;20027;-86
2021/10/04 19:05:43;;;;;;;30.58;10.02;;;;;;;;;;10527417;28;20028;-87
2021/10/04 19:10:44;;;;;;;23.70;8.77;;;;;;;;;;10529425;28;20115;-87
2021/10/04 19:15:45;;;;;;;20.13;8.10;;;;;;;;;;10526648;28;20025;-87
